createdAt,value
2023-03-10T00:01:41.837Z,0.10
2023-03-10T00:04:45.079Z,-0.20
2023-03-10T00:07:50.277Z,-0.20
2023-03-10T00:10:54.860Z,-0.20
2023-03-10T00:13:58.044Z,-0.20
2023-03-10T00:17:01.181Z,-0.20
2023-03-10T00:20:07.965Z,-0.20
2023-03-10T00:23:11.488Z,-0.20
2023-03-10T00:26:18.200Z,-0.10
2023-03-10T00:29:22.140Z,-0.10
2023-03-10T00:32:25.372Z,-0.10
2023-03-10T00:35:29.041Z,-0.10
2023-03-10T00:38:32.711Z,-0.10
2023-03-10T00:41:39.153Z,-0.10
2023-03-10T00:44:42.404Z,0.60
2023-03-10T00:47:46.252Z,0.00
2023-03-10T00:50:49.576Z,0.00
2023-03-10T00:53:53.124Z,0.00
2023-03-10T00:56:57.697Z,0.10
2023-03-10T01:00:00.894Z,0.00
2023-03-10T01:03:04.143Z,0.10
2023-03-10T01:06:07.845Z,0.00
2023-03-10T01:09:11.318Z,0.00
2023-03-10T01:12:16.068Z,0.50
2023-03-10T01:15:19.986Z,0.10
2023-03-10T01:18:23.588Z,0.10
2023-03-10T01:21:29.607Z,0.20
2023-03-10T01:24:32.802Z,0.20
2023-03-10T01:27:37.418Z,0.20
2023-03-10T01:30:42.554Z,0.40
2023-03-10T01:33:47.539Z,0.40
2023-03-10T01:36:50.789Z,0.20
2023-03-10T01:39:53.945Z,0.20
2023-03-10T01:43:29.255Z,0.20
2023-03-10T01:46:47.779Z,0.30
2023-03-10T01:50:00.567Z,0.30
2023-03-10T01:53:03.967Z,0.30
2023-03-10T01:56:07.967Z,0.40
2023-03-10T01:59:13.448Z,0.40
2023-03-10T02:02:17.315Z,0.40
2023-03-10T02:05:21.862Z,0.40
2023-03-10T02:08:27.114Z,0.40
2023-03-10T02:11:31.611Z,0.50
2023-03-10T02:14:36.763Z,0.70
2023-03-10T02:17:41.757Z,0.50
2023-03-10T02:20:50.626Z,0.50
2023-03-10T02:24:01.928Z,0.50
2023-03-10T02:27:17.449Z,0.50
2023-03-10T02:30:25.847Z,0.50
2023-03-10T02:33:32.444Z,0.50
2023-03-10T02:36:37.195Z,0.50
2023-03-10T02:39:40.681Z,0.50
2023-03-10T02:42:45.544Z,0.50
2023-03-10T02:45:51.776Z,0.40
2023-03-10T02:48:55.740Z,0.50
2023-03-10T02:52:11.212Z,0.50
2023-03-10T02:55:16.392Z,0.50
2023-03-10T02:58:23.364Z,0.50
2023-03-10T03:01:30.331Z,0.50
2023-03-10T03:04:34.103Z,0.50
2023-03-10T03:07:37.610Z,0.50
2023-03-10T03:10:42.906Z,0.50
2023-03-10T03:13:48.882Z,0.50
2023-03-10T03:16:52.394Z,0.50
2023-03-10T03:19:55.816Z,0.50
2023-03-10T03:23:00.791Z,0.50
2023-03-10T03:26:04.478Z,0.50
2023-03-10T03:29:11.966Z,0.60
2023-03-10T03:32:16.150Z,1.10
2023-03-10T03:35:22.194Z,0.60
2023-03-10T03:38:25.810Z,0.60
2023-03-10T03:41:29.388Z,0.80
2023-03-10T03:44:34.289Z,1.30
2023-03-10T03:47:37.974Z,0.60
2023-03-10T03:50:41.603Z,0.60
2023-03-10T03:53:54.420Z,0.60
2023-03-10T03:56:58.229Z,0.60
2023-03-10T04:00:04.271Z,0.60
2023-03-10T04:03:15.802Z,0.60
2023-03-10T04:06:19.399Z,0.60
2023-03-10T04:09:24.878Z,0.70
2023-03-10T04:12:29.604Z,0.80
2023-03-10T04:15:36.419Z,0.60
2023-03-10T04:18:40.220Z,0.60
2023-03-10T04:21:45.944Z,0.60
2023-03-10T04:24:49.968Z,0.90
2023-03-10T04:27:53.313Z,0.60
2023-03-10T04:30:58.056Z,0.70
2023-03-10T04:34:05.095Z,0.70
2023-03-10T04:37:09.041Z,0.60
2023-03-10T04:40:14.668Z,0.60
2023-03-10T04:43:18.341Z,0.60
2023-03-10T04:46:23.120Z,0.60
2023-03-10T04:49:26.953Z,0.70
2023-03-10T04:52:30.359Z,0.60
2023-03-10T04:55:33.859Z,0.60
2023-03-10T04:58:39.244Z,0.80
2023-03-10T05:01:44.781Z,0.60
2023-03-10T05:04:48.181Z,0.70
2023-03-10T05:07:51.559Z,0.70
2023-03-10T05:10:56.569Z,0.70
2023-03-10T05:14:00.190Z,0.70
2023-03-10T05:17:05.174Z,0.60
2023-03-10T05:20:09.900Z,0.70
2023-03-10T05:23:14.133Z,0.70
2023-03-10T05:26:18.133Z,0.80
2023-03-10T05:29:21.939Z,0.80
2023-03-10T05:32:31.510Z,0.70
2023-03-10T05:35:34.897Z,0.80
2023-03-10T05:38:39.039Z,0.70
2023-03-10T05:41:44.686Z,0.70
2023-03-10T05:44:48.389Z,0.80
2023-03-10T05:47:53.293Z,0.80
2023-03-10T05:51:01.367Z,1.00
2023-03-10T05:54:06.433Z,1.00
2023-03-10T05:57:11.257Z,0.90
2023-03-10T06:00:17.332Z,0.90
2023-03-10T06:03:33.093Z,1.00
2023-03-10T06:06:36.644Z,0.90
2023-03-10T06:09:39.922Z,1.10
2023-03-10T06:12:43.163Z,1.20
2023-03-10T06:15:48.786Z,1.30
2023-03-10T06:18:56.226Z,1.30
2023-03-10T06:21:59.463Z,1.40
2023-03-10T06:25:02.844Z,1.40
2023-03-10T06:28:08.481Z,1.50
2023-03-10T06:31:18.533Z,1.50
2023-03-10T06:34:23.160Z,1.60
2023-03-10T06:37:26.906Z,1.70
2023-03-10T06:40:30.163Z,1.80
2023-03-10T06:43:33.622Z,1.90
2023-03-10T06:46:38.358Z,2.00
2023-03-10T06:49:43.548Z,2.20
2023-03-10T06:52:47.068Z,2.20
2023-03-10T06:55:58.768Z,2.30
2023-03-10T06:59:02.287Z,2.40
2023-03-10T07:02:05.793Z,2.50
2023-03-10T07:05:13.305Z,2.60
2023-03-10T07:08:16.481Z,2.60
2023-03-10T07:11:20.329Z,2.60
2023-03-10T07:14:27.807Z,2.60
2023-03-10T07:17:31.079Z,2.80
2023-03-10T07:20:41.269Z,3.00
2023-03-10T07:23:44.625Z,3.00
2023-03-10T07:26:47.782Z,3.20
2023-03-10T07:29:51.009Z,3.30
2023-03-10T07:32:54.240Z,3.60
2023-03-10T07:36:00.610Z,3.60
2023-03-10T07:39:04.029Z,3.70
2023-03-10T07:42:07.875Z,4.00
2023-03-10T07:45:12.265Z,4.40
2023-03-10T07:48:15.425Z,4.00
2023-03-10T07:51:20.268Z,4.30
2023-03-10T07:54:23.425Z,4.40
2023-03-10T07:57:26.604Z,4.50
2023-03-10T08:00:29.915Z,4.40
2023-03-10T08:03:34.138Z,4.50
2023-03-10T08:06:38.990Z,4.70
2023-03-10T08:09:42.631Z,4.60
2023-03-10T08:12:45.793Z,4.60
2023-03-10T08:15:48.965Z,4.60
2023-03-10T08:18:53.495Z,4.90
2023-03-10T08:21:58.823Z,5.10
2023-03-10T08:25:02.137Z,5.40
2023-03-10T08:28:05.613Z,5.70
2023-03-10T08:31:10.395Z,6.00
2023-03-10T08:34:14.424Z,6.20
2023-03-10T08:37:18.958Z,6.40
2023-03-10T08:40:22.391Z,6.60
2023-03-10T08:43:25.810Z,6.70
2023-03-10T08:46:31.651Z,6.80
2023-03-10T08:49:34.846Z,7.00
2023-03-10T08:52:39.823Z,7.20
2023-03-10T08:55:43.101Z,7.30
2023-03-10T08:58:46.508Z,7.40
2023-03-10T09:01:49.790Z,7.50
2023-03-10T09:04:53.301Z,7.60
2023-03-10T09:07:57.964Z,7.80
2023-03-10T09:11:02.226Z,7.90
2023-03-10T09:14:05.899Z,8.10
2023-03-10T09:17:11.788Z,8.40
2023-03-10T09:20:15.855Z,8.70
2023-03-10T09:23:20.882Z,9.00
2023-03-10T09:26:24.275Z,9.10
2023-03-10T09:29:42.010Z,9.20
2023-03-10T09:32:45.869Z,9.30
2023-03-10T09:36:05.342Z,9.10
2023-03-10T09:39:10.374Z,9.20
2023-03-10T09:42:38.456Z,9.60
2023-03-10T09:45:48.199Z,9.90
2023-03-10T09:48:56.797Z,10.00
2023-03-10T09:52:02.184Z,10.20
2023-03-10T09:55:16.305Z,10.40
2023-03-10T09:58:32.040Z,10.40
2023-03-10T10:01:36.356Z,10.60
2023-03-10T10:04:41.414Z,10.80
2023-03-10T10:07:50.308Z,11.00
2023-03-10T10:10:57.088Z,11.10
2023-03-10T10:14:28.450Z,11.30
2023-03-10T10:17:53.042Z,11.40
2023-03-10T10:21:01.157Z,11.30
2023-03-10T10:24:05.053Z,11.30
2023-03-10T10:27:10.422Z,11.30
2023-03-10T10:30:35.430Z,11.40
2023-03-10T10:33:54.752Z,11.90
2023-03-10T10:36:58.232Z,12.00
2023-03-10T10:40:02.036Z,12.00
2023-03-10T10:43:07.718Z,12.10
2023-03-10T10:46:13.654Z,12.00
2023-03-10T10:49:23.818Z,12.00
2023-03-10T10:52:27.746Z,12.10
2023-03-10T10:55:34.682Z,12.10
2023-03-10T10:58:41.474Z,12.00
2023-03-10T11:01:50.585Z,12.00
2023-03-10T11:04:53.780Z,12.10
2023-03-10T11:07:58.251Z,12.10
2023-03-10T11:11:06.524Z,12.20
2023-03-10T11:14:36.690Z,12.30
2023-03-10T11:17:44.280Z,12.30
2023-03-10T11:20:56.488Z,12.20
2023-03-10T11:24:09.290Z,12.20
2023-03-10T11:27:19.826Z,12.30
2023-03-10T11:30:31.721Z,12.40
2023-03-10T11:33:41.498Z,13.00
2023-03-10T11:36:56.809Z,13.60
2023-03-10T11:40:08.224Z,13.60
2023-03-10T11:43:22.145Z,13.70
2023-03-10T11:46:32.178Z,13.80
2023-03-10T11:49:40.136Z,13.70
2023-03-10T11:52:44.355Z,13.70
2023-03-10T11:55:49.106Z,14.30
2023-03-10T11:58:55.867Z,14.90
2023-03-10T12:02:06.588Z,15.40
2023-03-10T12:05:16.393Z,14.90
2023-03-10T12:08:23.744Z,14.90
2023-03-10T12:11:30.104Z,14.90
2023-03-10T12:14:35.086Z,15.00
2023-03-10T12:17:41.729Z,15.00
2023-03-10T12:20:44.992Z,15.40
2023-03-10T12:23:50.246Z,15.30
2023-03-10T12:27:05.339Z,15.40
2023-03-10T12:30:41.949Z,15.30
2023-03-10T12:33:50.372Z,15.20
2023-03-10T12:36:54.982Z,15.00
2023-03-10T12:39:58.239Z,14.90
2023-03-10T12:43:47.763Z,15.00
2023-03-10T12:46:54.426Z,15.10
2023-03-10T12:50:06.452Z,15.40
2023-03-10T12:53:29.948Z,15.70
2023-03-10T12:56:36.814Z,15.70
2023-03-10T12:59:43.256Z,15.60
2023-03-10T13:02:53.683Z,15.70
2023-03-10T13:06:04.977Z,15.80
2023-03-10T13:09:18.964Z,16.10
2023-03-10T13:12:30.900Z,16.30
2023-03-10T13:15:36.142Z,16.40
2023-03-10T13:18:39.336Z,16.20
2023-03-10T13:21:45.938Z,16.50
2023-03-10T13:24:58.865Z,16.50
2023-03-10T13:28:10.199Z,16.60
2023-03-10T13:31:21.218Z,16.40
2023-03-10T13:34:29.151Z,16.10
2023-03-10T13:37:33.777Z,16.20
2023-03-10T13:40:38.828Z,16.40
2023-03-10T13:43:43.857Z,16.50
2023-03-10T13:46:52.412Z,16.90
2023-03-10T13:49:58.576Z,16.80
2023-03-10T13:53:04.469Z,17.50
2023-03-10T13:56:18.151Z,17.70
2023-03-10T13:59:25.381Z,16.90
2023-03-10T14:02:34.201Z,16.40
2023-03-10T14:05:50.353Z,16.00
2023-03-10T14:08:55.735Z,15.80
2023-03-10T14:11:59.283Z,15.50
2023-03-10T14:15:11.614Z,15.40
2023-03-10T14:18:19.697Z,15.30
2023-03-10T14:21:33.400Z,15.30
2023-03-10T14:24:38.119Z,15.20
2023-03-10T14:27:45.498Z,15.20
2023-03-10T14:30:48.894Z,15.10
2023-03-10T14:33:52.979Z,15.10
2023-03-10T14:36:56.271Z,15.10
2023-03-10T14:40:01.001Z,15.10
2023-03-10T14:43:04.391Z,15.00
2023-03-10T14:46:08.511Z,15.20
2023-03-10T14:49:16.005Z,15.80
2023-03-10T14:52:20.390Z,16.20
2023-03-10T14:55:25.599Z,16.60
2023-03-10T14:58:31.234Z,16.70
2023-03-10T15:01:34.988Z,16.70
2023-03-10T15:04:39.139Z,16.70
2023-03-10T15:07:42.768Z,16.40
2023-03-10T15:10:50.684Z,16.00
2023-03-10T15:13:54.235Z,15.60
2023-03-10T15:16:58.358Z,15.30
2023-03-10T15:20:01.713Z,15.20
2023-03-10T15:23:05.248Z,15.00
2023-03-10T15:26:12.955Z,14.90
2023-03-10T15:29:17.362Z,14.80
2023-03-10T15:32:20.921Z,14.60
2023-03-10T15:35:25.237Z,14.50
2023-03-10T15:38:29.194Z,14.40
2023-03-10T15:41:36.842Z,14.30
2023-03-10T15:44:41.296Z,14.20
2023-03-10T15:47:44.992Z,14.20
2023-03-10T15:50:48.664Z,14.10
2023-03-10T15:53:53.095Z,14.10
2023-03-10T15:56:57.993Z,14.00
2023-03-10T16:00:03.954Z,13.90
2023-03-10T16:03:08.543Z,13.80
2023-03-10T16:06:12.868Z,13.70
2023-03-10T16:09:16.235Z,13.60
2023-03-10T16:12:22.386Z,13.30
2023-03-10T16:15:25.973Z,13.20
2023-03-10T16:18:29.512Z,13.00
2023-03-10T16:21:32.878Z,12.90
2023-03-10T16:24:36.507Z,13.10
2023-03-10T16:27:41.669Z,13.20
2023-03-10T16:30:49.744Z,13.20
2023-03-10T16:33:55.497Z,13.30
2023-03-10T16:36:59.069Z,13.10
2023-03-10T16:40:03.313Z,12.80
2023-03-10T16:43:08.045Z,12.50
2023-03-10T16:46:13.575Z,12.30
2023-03-10T16:49:18.194Z,12.20
2023-03-10T16:52:21.975Z,11.90
2023-03-10T16:55:25.443Z,11.80
2023-03-10T16:58:30.964Z,11.50
2023-03-10T17:01:35.501Z,11.30
2023-03-10T17:04:39.846Z,11.10
2023-03-10T17:07:54.624Z,10.90
2023-03-10T17:11:01.737Z,10.80
2023-03-10T17:14:08.794Z,10.70
2023-03-10T17:17:14.327Z,10.50
2023-03-10T17:20:20.178Z,10.30
2023-03-10T17:23:24.123Z,10.20
2023-03-10T17:26:27.516Z,10.10
2023-03-10T17:29:32.602Z,10.10
2023-03-10T17:32:37.084Z,9.90
2023-03-10T17:35:40.817Z,9.40
2023-03-10T17:38:46.401Z,9.20
2023-03-10T17:41:50.569Z,9.00
2023-03-10T17:44:55.191Z,8.90
2023-03-10T17:47:58.592Z,8.80
2023-03-10T17:51:04.390Z,8.60
2023-03-10T17:54:08.017Z,8.50
2023-03-10T17:57:12.385Z,8.50
2023-03-10T18:00:19.506Z,8.40
2023-03-10T18:03:22.905Z,8.40
2023-03-10T18:06:27.931Z,8.30
2023-03-10T18:09:31.456Z,8.10
2023-03-10T18:12:37.576Z,8.00
2023-03-10T18:15:42.536Z,8.00
2023-03-10T18:18:46.599Z,8.00
2023-03-10T18:21:51.110Z,7.90
2023-03-10T18:24:56.449Z,8.10
2023-03-10T18:28:00.263Z,8.00
2023-03-10T18:31:08.389Z,7.90
2023-03-10T18:34:13.604Z,8.00
2023-03-10T18:37:17.386Z,8.00
2023-03-10T18:40:21.680Z,8.00
2023-03-10T18:43:26.805Z,8.00
2023-03-10T18:46:33.254Z,8.00
2023-03-10T18:49:37.412Z,8.00
2023-03-10T18:52:41.119Z,8.00
2023-03-10T18:55:46.239Z,7.90
2023-03-10T18:58:49.932Z,7.80
2023-03-10T19:01:58.716Z,7.60
2023-03-10T19:05:05.179Z,7.60
2023-03-10T19:08:10.803Z,7.50
2023-03-10T19:11:15.473Z,7.40
2023-03-10T19:14:20.297Z,7.30
2023-03-10T19:17:26.648Z,7.20
2023-03-10T19:20:30.085Z,7.10
2023-03-10T19:23:35.512Z,7.00
2023-03-10T19:26:38.855Z,6.90
2023-03-10T19:29:42.274Z,7.10
2023-03-10T19:32:47.720Z,7.10
2023-03-10T19:35:51.531Z,7.00
2023-03-10T19:38:55.034Z,7.00
2023-03-10T19:41:58.605Z,7.00
2023-03-10T19:45:02.064Z,7.10
2023-03-10T19:48:07.356Z,7.10
2023-03-10T19:51:17.520Z,7.10
2023-03-10T19:54:20.902Z,7.20
2023-03-10T19:57:24.601Z,7.20
2023-03-10T20:00:31.396Z,7.30
2023-03-10T20:03:36.339Z,7.30
2023-03-10T20:06:39.569Z,7.40
2023-03-10T20:09:45.821Z,7.50
2023-03-10T20:12:51.137Z,7.80
2023-03-10T20:15:54.574Z,8.00
2023-03-10T20:19:00.894Z,8.20
2023-03-10T20:22:04.889Z,8.40
2023-03-10T20:25:10.456Z,8.50
2023-03-10T20:28:14.298Z,8.50
2023-03-10T20:31:20.497Z,8.50
2023-03-10T20:34:25.868Z,8.50
2023-03-10T20:37:29.970Z,8.70
2023-03-10T20:40:34.987Z,8.70
2023-03-10T20:43:38.366Z,8.70
2023-03-10T20:46:44.806Z,8.80
2023-03-10T20:49:51.330Z,8.70
2023-03-10T20:52:54.936Z,8.60
2023-03-10T20:55:59.379Z,8.50
2023-03-10T20:59:03.378Z,8.50
2023-03-10T21:02:08.243Z,8.40
2023-03-10T21:05:14.078Z,8.20
2023-03-10T21:08:17.570Z,8.10
2023-03-10T21:11:21.713Z,8.00
2023-03-10T21:14:25.446Z,8.00
2023-03-10T21:17:29.386Z,7.90
2023-03-10T21:20:34.512Z,7.90
2023-03-10T21:23:39.585Z,7.80
2023-03-10T21:26:44.790Z,7.70
2023-03-10T21:29:49.555Z,7.80
2023-03-10T21:32:52.905Z,7.80
2023-03-10T21:35:58.265Z,7.60
2023-03-10T21:39:03.002Z,7.40
2023-03-10T21:42:07.446Z,7.30
2023-03-10T21:45:14.282Z,7.20
2023-03-10T21:48:18.574Z,7.30
2023-03-10T21:51:25.173Z,7.20
2023-03-10T21:54:28.736Z,7.30
2023-03-10T21:57:32.540Z,7.50
2023-03-10T22:00:37.124Z,7.70
2023-03-10T22:03:40.419Z,7.70
2023-03-10T22:06:45.063Z,7.80
2023-03-10T22:09:48.940Z,7.90
2023-03-10T22:12:52.358Z,7.90
2023-03-10T22:15:56.097Z,8.00
2023-03-10T22:18:59.356Z,8.10
2023-03-10T22:22:05.052Z,8.20
2023-03-10T22:25:10.450Z,8.30
2023-03-10T22:28:13.827Z,8.40
2023-03-10T22:31:19.188Z,8.40
2023-03-10T22:34:22.730Z,8.50
2023-03-10T22:37:27.440Z,8.50
2023-03-10T22:40:30.784Z,8.50
2023-03-10T22:43:33.973Z,8.60
2023-03-10T22:46:37.260Z,8.60
2023-03-10T22:49:42.061Z,8.70
2023-03-10T22:52:46.658Z,8.70
2023-03-10T22:55:51.134Z,8.60
2023-03-10T22:58:54.297Z,8.60
2023-03-10T23:01:57.585Z,8.60
2023-03-10T23:05:00.823Z,8.60
2023-03-10T23:08:06.963Z,8.50
2023-03-10T23:11:11.442Z,8.50
2023-03-10T23:14:14.683Z,8.50
2023-03-10T23:17:17.878Z,8.50
2023-03-10T23:20:22.032Z,8.50
2023-03-10T23:23:26.619Z,8.40
2023-03-10T23:26:30.120Z,8.40
2023-03-10T23:29:33.374Z,8.40
2023-03-10T23:32:36.849Z,8.40
2023-03-10T23:35:40.156Z,8.40
2023-03-10T23:38:44.886Z,8.40
2023-03-10T23:41:48.162Z,8.40
2023-03-10T23:44:51.565Z,8.40
2023-03-10T23:47:56.026Z,8.40
2023-03-10T23:51:02.796Z,8.30
2023-03-10T23:54:07.494Z,8.40
2023-03-10T23:57:10.656Z,8.40
